sensor_id;sensor_type;location;lat;lon;timestamp;P1;durP1;ratioP1;P2;durP2;ratioP2
71969;SDS011;59838;52.152;5.436;2024-02-21T00:01:14;8.00;;;1.30;;
71969;SDS011;59838;52.152;5.436;2024-02-21T00:03:42;12.27;;;1.40;;
71969;SDS011;59838;52.152;5.436;2024-02-21T00:06:09;6.10;;;1.50;;
71969;SDS011;59838;52.152;5.436;2024-02-21T00:08:36;6.53;;;1.52;;
71969;SDS011;59838;52.152;5.436;2024-02-21T00:11:02;4.85;;;1.23;;
71969;SDS011;59838;52.152;5.436;2024-02-21T00:13:29;9.00;;;1.55;;
71969;SDS011;59838;52.152;5.436;2024-02-21T00:15:56;6.47;;;1.13;;
71969;SDS011;59838;52.152;5.436;2024-02-21T00:18:23;9.95;;;2.17;;
71969;SDS011;59838;52.152;5.436;2024-02-21T00:20:55;8.55;;;1.95;;
71969;SDS011;59838;52.152;5.436;2024-02-21T00:23:22;4.68;;;1.75;;
71969;SDS011;59838;52.152;5.436;2024-02-21T00:25:48;12.07;;;1.50;;
71969;SDS011;59838;52.152;5.436;2024-02-21T00:28:15;6.43;;;1.20;;
71969;SDS011;59838;52.152;5.436;2024-02-21T00:30:42;11.77;;;1.40;;
71969;SDS011;59838;52.152;5.436;2024-02-21T00:33:08;6.20;;;1.40;;
71969;SDS011;59838;52.152;5.436;2024-02-21T00:35:35;14.07;;;1.25;;
71969;SDS011;59838;52.152;5.436;2024-02-21T00:38:01;6.32;;;1.30;;
71969;SDS011;59838;52.152;5.436;2024-02-21T00:40:29;5.55;;;1.02;;
71969;SDS011;59838;52.152;5.436;2024-02-21T00:42:56;6.80;;;1.20;;
71969;SDS011;59838;52.152;5.436;2024-02-21T00:45:23;6.55;;;1.10;;
71969;SDS011;59838;52.152;5.436;2024-02-21T00:47:49;11.60;;;1.30;;
71969;SDS011;59838;52.152;5.436;2024-02-21T00:50:16;7.87;;;1.50;;
71969;SDS011;59838;52.152;5.436;2024-02-21T00:52:43;10.98;;;1.83;;
71969;SDS011;59838;52.152;5.436;2024-02-21T00:55:10;4.15;;;1.38;;
71969;SDS011;59838;52.152;5.436;2024-02-21T00:57:37;7.90;;;1.45;;
71969;SDS011;59838;52.152;5.436;2024-02-21T01:00:04;7.18;;;1.08;;
71969;SDS011;59838;52.152;5.436;2024-02-21T01:02:31;6.72;;;1.10;;
71969;SDS011;59838;52.152;5.436;2024-02-21T01:04:58;12.90;;;1.58;;
71969;SDS011;59838;52.152;5.436;2024-02-21T01:07:24;5.93;;;1.33;;
71969;SDS011;59838;52.152;5.436;2024-02-21T01:09:51;6.97;;;1.27;;
71969;SDS011;59838;52.152;5.436;2024-02-21T01:12:18;6.68;;;0.98;;
71969;SDS011;59838;52.152;5.436;2024-02-21T01:14:44;7.55;;;1.60;;
71969;SDS011;59838;52.152;5.436;2024-02-21T01:17:12;6.55;;;1.33;;
71969;SDS011;59838;52.152;5.436;2024-02-21T01:19:39;6.07;;;1.30;;
71969;SDS011;59838;52.152;5.436;2024-02-21T01:22:06;6.53;;;1.48;;
71969;SDS011;59838;52.152;5.436;2024-02-21T01:24:32;12.50;;;1.65;;
71969;SDS011;59838;52.152;5.436;2024-02-21T01:26:59;8.57;;;1.77;;
71969;SDS011;59838;52.152;5.436;2024-02-21T01:29:25;9.57;;;1.60;;
71969;SDS011;59838;52.152;5.436;2024-02-21T01:31:52;8.95;;;1.77;;
71969;SDS011;59838;52.152;5.436;2024-02-21T01:34:18;5.32;;;2.00;;
71969;SDS011;59838;52.152;5.436;2024-02-21T01:36:45;5.20;;;1.95;;
71969;SDS011;59838;52.152;5.436;2024-02-21T01:39:11;5.10;;;1.90;;
71969;SDS011;59838;52.152;5.436;2024-02-21T01:41:38;7.80;;;1.15;;
71969;SDS011;59838;52.152;5.436;2024-02-21T01:44:04;7.65;;;1.90;;
71969;SDS011;59838;52.152;5.436;2024-02-21T01:46:31;10.13;;;2.45;;
71969;SDS011;59838;52.152;5.436;2024-02-21T01:48:57;8.05;;;1.63;;
71969;SDS011;59838;52.152;5.436;2024-02-21T01:51:24;7.67;;;1.80;;
71969;SDS011;59838;52.152;5.436;2024-02-21T01:53:51;7.10;;;1.70;;
71969;SDS011;59838;52.152;5.436;2024-02-21T01:56:21;6.15;;;1.80;;
71969;SDS011;59838;52.152;5.436;2024-02-21T01:58:48;12.25;;;2.13;;
71969;SDS011;59838;52.152;5.436;2024-02-21T02:01:15;7.32;;;1.48;;
71969;SDS011;59838;52.152;5.436;2024-02-21T02:03:47;11.57;;;2.00;;
71969;SDS011;59838;52.152;5.436;2024-02-21T02:06:15;12.35;;;2.28;;
71969;SDS011;59838;52.152;5.436;2024-02-21T02:08:41;5.25;;;1.70;;
71969;SDS011;59838;52.152;5.436;2024-02-21T02:11:08;12.60;;;2.78;;
71969;SDS011;59838;52.152;5.436;2024-02-21T02:13:36;6.68;;;2.45;;
71969;SDS011;59838;52.152;5.436;2024-02-21T02:16:02;7.03;;;2.25;;
71969;SDS011;59838;52.152;5.436;2024-02-21T02:18:30;4.97;;;1.63;;
71969;SDS011;59838;52.152;5.436;2024-02-21T02:20:56;5.88;;;1.90;;
71969;SDS011;59838;52.152;5.436;2024-02-21T02:23:30;5.45;;;2.00;;
71969;SDS011;59838;52.152;5.436;2024-02-21T02:26:00;8.55;;;2.08;;
71969;SDS011;59838;52.152;5.436;2024-02-21T02:28:29;6.00;;;1.75;;
71969;SDS011;59838;52.152;5.436;2024-02-21T02:30:56;8.05;;;1.83;;
71969;SDS011;59838;52.152;5.436;2024-02-21T02:33:23;6.65;;;2.13;;
71969;SDS011;59838;52.152;5.436;2024-02-21T02:35:50;11.30;;;2.53;;
71969;SDS011;59838;52.152;5.436;2024-02-21T02:38:16;9.07;;;1.77;;
71969;SDS011;59838;52.152;5.436;2024-02-21T02:40:43;7.50;;;2.20;;
71969;SDS011;59838;52.152;5.436;2024-02-21T02:43:09;8.60;;;2.20;;
71969;SDS011;59838;52.152;5.436;2024-02-21T02:45:36;7.28;;;1.90;;
71969;SDS011;59838;52.152;5.436;2024-02-21T02:48:03;9.85;;;2.13;;
71969;SDS011;59838;52.152;5.436;2024-02-21T02:50:30;7.95;;;2.20;;
71969;SDS011;59838;52.152;5.436;2024-02-21T02:52:57;9.63;;;2.20;;
71969;SDS011;59838;52.152;5.436;2024-02-21T02:55:24;8.98;;;2.70;;
71969;SDS011;59838;52.152;5.436;2024-02-21T02:57:52;9.73;;;2.25;;
71969;SDS011;59838;52.152;5.436;2024-02-21T03:00:19;8.48;;;2.53;;
71969;SDS011;59838;52.152;5.436;2024-02-21T03:02:46;7.05;;;2.33;;
71969;SDS011;59838;52.152;5.436;2024-02-21T03:05:18;9.07;;;2.08;;
71969;SDS011;59838;52.152;5.436;2024-02-21T03:07:46;14.40;;;2.67;;
71969;SDS011;59838;52.152;5.436;2024-02-21T03:10:14;11.15;;;2.40;;
71969;SDS011;59838;52.152;5.436;2024-02-21T03:12:45;10.27;;;2.95;;
71969;SDS011;59838;52.152;5.436;2024-02-21T03:15:12;11.35;;;2.90;;
71969;SDS011;59838;52.152;5.436;2024-02-21T03:17:40;6.97;;;2.30;;
71969;SDS011;59838;52.152;5.436;2024-02-21T03:20:07;7.68;;;2.35;;
71969;SDS011;59838;52.152;5.436;2024-02-21T03:22:37;11.63;;;2.83;;
71969;SDS011;59838;52.152;5.436;2024-02-21T03:25:04;9.93;;;2.00;;
71969;SDS011;59838;52.152;5.436;2024-02-21T03:27:31;6.33;;;1.77;;
71969;SDS011;59838;52.152;5.436;2024-02-21T03:29:57;7.57;;;2.13;;
71969;SDS011;59838;52.152;5.436;2024-02-21T03:32:24;10.35;;;2.38;;
71969;SDS011;59838;52.152;5.436;2024-02-21T03:34:50;4.20;;;2.17;;
71969;SDS011;59838;52.152;5.436;2024-02-21T03:37:17;6.43;;;2.55;;
71969;SDS011;59838;52.152;5.436;2024-02-21T03:39:43;6.25;;;2.88;;
71969;SDS011;59838;52.152;5.436;2024-02-21T03:42:10;3.55;;;1.95;;
71969;SDS011;59838;52.152;5.436;2024-02-21T03:44:36;9.38;;;2.38;;
71969;SDS011;59838;52.152;5.436;2024-02-21T03:47:03;12.07;;;2.63;;
71969;SDS011;59838;52.152;5.436;2024-02-21T03:49:29;8.63;;;2.63;;
71969;SDS011;59838;52.152;5.436;2024-02-21T03:51:56;5.00;;;1.90;;
71969;SDS011;59838;52.152;5.436;2024-02-21T03:54:22;5.72;;;2.72;;
71969;SDS011;59838;52.152;5.436;2024-02-21T03:56:49;10.00;;;2.97;;
71969;SDS011;59838;52.152;5.436;2024-02-21T03:59:16;5.93;;;2.20;;
71969;SDS011;59838;52.152;5.436;2024-02-21T04:01:42;5.40;;;2.17;;
71969;SDS011;59838;52.152;5.436;2024-02-21T04:04:09;8.45;;;2.33;;
71969;SDS011;59838;52.152;5.436;2024-02-21T04:06:37;9.55;;;3.08;;
71969;SDS011;59838;52.152;5.436;2024-02-21T04:09:11;9.77;;;3.28;;
71969;SDS011;59838;52.152;5.436;2024-02-21T04:11:38;8.80;;;2.88;;
71969;SDS011;59838;52.152;5.436;2024-02-21T04:14:04;4.97;;;2.35;;
71969;SDS011;59838;52.152;5.436;2024-02-21T04:16:31;12.93;;;2.73;;
71969;SDS011;59838;52.152;5.436;2024-02-21T04:18:57;7.57;;;2.10;;
71969;SDS011;59838;52.152;5.436;2024-02-21T04:21:24;4.05;;;2.00;;
71969;SDS011;59838;52.152;5.436;2024-02-21T04:23:51;6.15;;;2.13;;
71969;SDS011;59838;52.152;5.436;2024-02-21T04:26:17;10.23;;;2.30;;
71969;SDS011;59838;52.152;5.436;2024-02-21T04:28:44;5.28;;;2.45;;
71969;SDS011;59838;52.152;5.436;2024-02-21T04:31:11;6.13;;;2.30;;
71969;SDS011;59838;52.152;5.436;2024-02-21T04:33:38;11.60;;;2.50;;
71969;SDS011;59838;52.152;5.436;2024-02-21T04:36:04;7.55;;;2.78;;
71969;SDS011;59838;52.152;5.436;2024-02-21T04:38:31;9.23;;;2.55;;
71969;SDS011;59838;52.152;5.436;2024-02-21T04:40:57;9.95;;;2.80;;
71969;SDS011;59838;52.152;5.436;2024-02-21T04:43:25;7.95;;;2.47;;
71969;SDS011;59838;52.152;5.436;2024-02-21T04:45:51;6.15;;;3.15;;
71969;SDS011;59838;52.152;5.436;2024-02-21T04:48:19;6.72;;;2.15;;
71969;SDS011;59838;52.152;5.436;2024-02-21T04:50:46;10.07;;;2.70;;
71969;SDS011;59838;52.152;5.436;2024-02-21T04:53:13;5.45;;;2.78;;
71969;SDS011;59838;52.152;5.436;2024-02-21T04:55:40;7.40;;;2.15;;
71969;SDS011;59838;52.152;5.436;2024-02-21T04:58:07;8.52;;;2.58;;
71969;SDS011;59838;52.152;5.436;2024-02-21T05:00:34;7.95;;;2.22;;
71969;SDS011;59838;52.152;5.436;2024-02-21T05:03:00;8.82;;;2.60;;
71969;SDS011;59838;52.152;5.436;2024-02-21T05:05:28;3.95;;;2.42;;
71969;SDS011;59838;52.152;5.436;2024-02-21T05:07:54;12.57;;;3.03;;
71969;SDS011;59838;52.152;5.436;2024-02-21T05:10:21;7.28;;;2.30;;
71969;SDS011;59838;52.152;5.436;2024-02-21T05:12:48;4.63;;;2.13;;
71969;SDS011;59838;52.152;5.436;2024-02-21T05:15:14;3.75;;;2.28;;
71969;SDS011;59838;52.152;5.436;2024-02-21T05:17:40;5.73;;;2.53;;
71969;SDS011;59838;52.152;5.436;2024-02-21T05:20:08;11.85;;;3.10;;
71969;SDS011;59838;52.152;5.436;2024-02-21T05:22:35;7.88;;;2.72;;
71969;SDS011;59838;52.152;5.436;2024-02-21T05:25:02;6.85;;;2.92;;
71969;SDS011;59838;52.152;5.436;2024-02-21T05:27:28;6.72;;;3.25;;
71969;SDS011;59838;52.152;5.436;2024-02-21T05:29:55;7.97;;;2.67;;
71969;SDS011;59838;52.152;5.436;2024-02-21T05:32:21;6.15;;;2.88;;
71969;SDS011;59838;52.152;5.436;2024-02-21T05:34:48;7.38;;;2.33;;
71969;SDS011;59838;52.152;5.436;2024-02-21T05:37:16;5.15;;;2.55;;
71969;SDS011;59838;52.152;5.436;2024-02-21T05:39:42;5.45;;;2.85;;
71969;SDS011;59838;52.152;5.436;2024-02-21T05:42:08;5.35;;;2.78;;
71969;SDS011;59838;52.152;5.436;2024-02-21T05:44:35;11.48;;;3.38;;
71969;SDS011;59838;52.152;5.436;2024-02-21T05:47:01;6.05;;;2.70;;
71969;SDS011;59838;52.152;5.436;2024-02-21T05:49:28;9.80;;;2.97;;
71969;SDS011;59838;52.152;5.436;2024-02-21T05:51:54;5.22;;;3.30;;
71969;SDS011;59838;52.152;5.436;2024-02-21T05:54:21;7.40;;;3.08;;
71969;SDS011;59838;52.152;5.436;2024-02-21T05:56:47;4.15;;;2.67;;
71969;SDS011;59838;52.152;5.436;2024-02-21T05:59:14;6.35;;;3.05;;
71969;SDS011;59838;52.152;5.436;2024-02-21T06:01:40;3.83;;;2.60;;
71969;SDS011;59838;52.152;5.436;2024-02-21T06:04:07;7.20;;;3.17;;
71969;SDS011;59838;52.152;5.436;2024-02-21T06:06:33;10.02;;;3.95;;
71969;SDS011;59838;52.152;5.436;2024-02-21T06:09:00;10.20;;;3.40;;
71969;SDS011;59838;52.152;5.436;2024-02-21T06:11:29;9.38;;;3.42;;
71969;SDS011;59838;52.152;5.436;2024-02-21T06:13:55;8.65;;;4.22;;
71969;SDS011;59838;52.152;5.436;2024-02-21T06:16:22;7.82;;;4.25;;
71969;SDS011;59838;52.152;5.436;2024-02-21T06:18:49;7.50;;;3.10;;
71969;SDS011;59838;52.152;5.436;2024-02-21T06:21:15;5.90;;;3.60;;
71969;SDS011;59838;52.152;5.436;2024-02-21T06:23:42;16.23;;;3.47;;
71969;SDS011;59838;52.152;5.436;2024-02-21T06:26:09;7.80;;;3.67;;
71969;SDS011;59838;52.152;5.436;2024-02-21T06:28:36;8.65;;;3.75;;
71969;SDS011;59838;52.152;5.436;2024-02-21T06:31:02;6.13;;;3.47;;
71969;SDS011;59838;52.152;5.436;2024-02-21T06:33:29;8.68;;;3.70;;
71969;SDS011;59838;52.152;5.436;2024-02-21T06:35:56;8.23;;;3.60;;
71969;SDS011;59838;52.152;5.436;2024-02-21T06:38:23;10.20;;;4.40;;
71969;SDS011;59838;52.152;5.436;2024-02-21T06:40:49;10.75;;;5.35;;
71969;SDS011;59838;52.152;5.436;2024-02-21T06:43:18;9.47;;;5.13;;
71969;SDS011;59838;52.152;5.436;2024-02-21T06:45:46;11.50;;;5.00;;
71969;SDS011;59838;52.152;5.436;2024-02-21T06:48:19;12.18;;;4.75;;
71969;SDS011;59838;52.152;5.436;2024-02-21T06:50:46;11.90;;;5.25;;
71969;SDS011;59838;52.152;5.436;2024-02-21T06:53:13;9.68;;;5.00;;
71969;SDS011;59838;52.152;5.436;2024-02-21T06:55:39;12.57;;;5.30;;
71969;SDS011;59838;52.152;5.436;2024-02-21T06:58:06;12.40;;;5.63;;
71969;SDS011;59838;52.152;5.436;2024-02-21T07:00:34;8.23;;;5.65;;
71969;SDS011;59838;52.152;5.436;2024-02-21T07:03:01;13.80;;;6.97;;
71969;SDS011;59838;52.152;5.436;2024-02-21T07:05:28;10.43;;;5.63;;
71969;SDS011;59838;52.152;5.436;2024-02-21T07:07:55;13.88;;;6.65;;
71969;SDS011;59838;52.152;5.436;2024-02-21T07:10:22;11.85;;;6.68;;
71969;SDS011;59838;52.152;5.436;2024-02-21T07:12:49;17.90;;;6.45;;
71969;SDS011;59838;52.152;5.436;2024-02-21T07:15:15;20.42;;;7.18;;
71969;SDS011;59838;52.152;5.436;2024-02-21T07:17:42;16.05;;;5.88;;
71969;SDS011;59838;52.152;5.436;2024-02-21T07:20:08;12.27;;;6.50;;
71969;SDS011;59838;52.152;5.436;2024-02-21T07:22:35;14.38;;;6.20;;
71969;SDS011;59838;52.152;5.436;2024-02-21T07:25:02;18.70;;;7.88;;
71969;SDS011;59838;52.152;5.436;2024-02-21T07:27:31;15.63;;;8.00;;
71969;SDS011;59838;52.152;5.436;2024-02-21T07:29:59;19.08;;;6.20;;
71969;SDS011;59838;52.152;5.436;2024-02-21T07:32:26;15.07;;;6.47;;
71969;SDS011;59838;52.152;5.436;2024-02-21T07:34:52;14.43;;;6.43;;
71969;SDS011;59838;52.152;5.436;2024-02-21T07:37:19;16.63;;;5.75;;
71969;SDS011;59838;52.152;5.436;2024-02-21T07:39:46;13.85;;;5.25;;
71969;SDS011;59838;52.152;5.436;2024-02-21T07:42:13;14.70;;;5.75;;
71969;SDS011;59838;52.152;5.436;2024-02-21T07:44:39;15.15;;;5.50;;
71969;SDS011;59838;52.152;5.436;2024-02-21T07:47:06;10.02;;;5.20;;
71969;SDS011;59838;52.152;5.436;2024-02-21T07:49:40;12.75;;;5.03;;
71969;SDS011;59838;52.152;5.436;2024-02-21T07:52:07;11.02;;;4.32;;
71969;SDS011;59838;52.152;5.436;2024-02-21T07:54:33;10.40;;;4.65;;
71969;SDS011;59838;52.152;5.436;2024-02-21T07:57:00;15.43;;;4.88;;
71969;SDS011;59838;52.152;5.436;2024-02-21T07:59:26;10.18;;;4.45;;
71969;SDS011;59838;52.152;5.436;2024-02-21T08:01:57;9.88;;;4.10;;
71969;SDS011;59838;52.152;5.436;2024-02-21T08:04:24;11.45;;;4.25;;
71969;SDS011;59838;52.152;5.436;2024-02-21T08:06:52;12.52;;;4.75;;
71969;SDS011;59838;52.152;5.436;2024-02-21T08:09:19;9.17;;;4.40;;
71969;SDS011;59838;52.152;5.436;2024-02-21T08:11:46;8.23;;;4.35;;
71969;SDS011;59838;52.152;5.436;2024-02-21T08:14:12;14.75;;;4.00;;
71969;SDS011;59838;52.152;5.436;2024-02-21T08:16:45;15.00;;;4.20;;
71969;SDS011;59838;52.152;5.436;2024-02-21T08:19:12;9.98;;;5.47;;
71969;SDS011;59838;52.152;5.436;2024-02-21T08:21:38;10.30;;;4.33;;
71969;SDS011;59838;52.152;5.436;2024-02-21T08:24:05;14.07;;;4.45;;
71969;SDS011;59838;52.152;5.436;2024-02-21T08:26:31;10.45;;;4.50;;
71969;SDS011;59838;52.152;5.436;2024-02-21T08:28:58;14.30;;;4.78;;
71969;SDS011;59838;52.152;5.436;2024-02-21T08:31:27;13.15;;;5.05;;
71969;SDS011;59838;52.152;5.436;2024-02-21T08:33:59;13.80;;;4.93;;
71969;SDS011;59838;52.152;5.436;2024-02-21T08:36:30;13.30;;;4.40;;
71969;SDS011;59838;52.152;5.436;2024-02-21T08:38:59;8.98;;;4.13;;
71969;SDS011;59838;52.152;5.436;2024-02-21T08:41:26;14.30;;;5.07;;
71969;SDS011;59838;52.152;5.436;2024-02-21T08:44:13;12.32;;;5.57;;
71969;SDS011;59838;52.152;5.436;2024-02-21T08:46:39;16.30;;;5.72;;
71969;SDS011;59838;52.152;5.436;2024-02-21T08:49:06;10.20;;;4.95;;
71969;SDS011;59838;52.152;5.436;2024-02-21T08:51:33;7.40;;;4.45;;
71969;SDS011;59838;52.152;5.436;2024-02-21T08:54:00;10.23;;;5.35;;
71969;SDS011;59838;52.152;5.436;2024-02-21T08:56:27;12.98;;;4.78;;
71969;SDS011;59838;52.152;5.436;2024-02-21T08:58:56;10.40;;;4.97;;
71969;SDS011;59838;52.152;5.436;2024-02-21T09:01:24;11.60;;;4.80;;
71969;SDS011;59838;52.152;5.436;2024-02-21T09:03:50;9.77;;;5.10;;
71969;SDS011;59838;52.152;5.436;2024-02-21T09:06:19;7.15;;;4.50;;
71969;SDS011;59838;52.152;5.436;2024-02-21T09:08:46;10.05;;;4.60;;
71969;SDS011;59838;52.152;5.436;2024-02-21T09:11:12;12.55;;;4.32;;
71969;SDS011;59838;52.152;5.436;2024-02-21T09:13:39;13.88;;;4.72;;
71969;SDS011;59838;52.152;5.436;2024-02-21T09:16:06;11.13;;;4.60;;
71969;SDS011;59838;52.152;5.436;2024-02-21T09:18:32;8.70;;;4.35;;
71969;SDS011;59838;52.152;5.436;2024-02-21T09:20:59;8.32;;;3.78;;
71969;SDS011;59838;52.152;5.436;2024-02-21T09:23:26;13.95;;;4.10;;
71969;SDS011;59838;52.152;5.436;2024-02-21T09:25:53;6.22;;;3.47;;
71969;SDS011;59838;52.152;5.436;2024-02-21T09:28:21;10.13;;;4.30;;
71969;SDS011;59838;52.152;5.436;2024-02-21T09:30:48;6.55;;;3.63;;
71969;SDS011;59838;52.152;5.436;2024-02-21T09:33:15;11.93;;;3.80;;
71969;SDS011;59838;52.152;5.436;2024-02-21T09:35:57;8.65;;;4.18;;
71969;SDS011;59838;52.152;5.436;2024-02-21T09:38:23;8.88;;;3.92;;
71969;SDS011;59838;52.152;5.436;2024-02-21T09:40:58;8.48;;;3.20;;
71969;SDS011;59838;52.152;5.436;2024-02-21T09:43:27;10.98;;;3.67;;
71969;SDS011;59838;52.152;5.436;2024-02-21T09:45:56;7.60;;;3.97;;
71969;SDS011;59838;52.152;5.436;2024-02-21T09:48:41;11.73;;;3.95;;
71969;SDS011;59838;52.152;5.436;2024-02-21T09:51:16;9.57;;;4.18;;
71969;SDS011;59838;52.152;5.436;2024-02-21T09:53:45;8.13;;;3.53;;
71969;SDS011;59838;52.152;5.436;2024-02-21T09:56:27;6.15;;;3.17;;
71969;SDS011;59838;52.152;5.436;2024-02-21T09:58:54;7.45;;;3.20;;
71969;SDS011;59838;52.152;5.436;2024-02-21T10:01:22;6.03;;;3.17;;
71969;SDS011;59838;52.152;5.436;2024-02-21T10:04:00;7.15;;;3.00;;
71969;SDS011;59838;52.152;5.436;2024-02-21T10:06:29;8.45;;;3.22;;
71969;SDS011;59838;52.152;5.436;2024-02-21T10:08:56;10.65;;;2.95;;
71969;SDS011;59838;52.152;5.436;2024-02-21T10:11:25;9.10;;;2.78;;
71969;SDS011;59838;52.152;5.436;2024-02-21T10:14:05;9.25;;;3.03;;
71969;SDS011;59838;52.152;5.436;2024-02-21T10:16:33;9.52;;;3.08;;
71969;SDS011;59838;52.152;5.436;2024-02-21T10:19:00;7.72;;;3.33;;
71969;SDS011;59838;52.152;5.436;2024-02-21T10:21:27;5.38;;;3.05;;
71969;SDS011;59838;52.152;5.436;2024-02-21T10:23:53;6.03;;;2.85;;
71969;SDS011;59838;52.152;5.436;2024-02-21T10:26:20;4.05;;;2.15;;
71969;SDS011;59838;52.152;5.436;2024-02-21T10:28:47;7.30;;;2.60;;
71969;SDS011;59838;52.152;5.436;2024-02-21T10:31:21;5.50;;;3.33;;
71969;SDS011;59838;52.152;5.436;2024-02-21T10:33:56;7.03;;;2.83;;
71969;SDS011;59838;52.152;5.436;2024-02-21T10:36:25;3.90;;;2.72;;
71969;SDS011;59838;52.152;5.436;2024-02-21T10:38:52;5.25;;;2.88;;
71969;SDS011;59838;52.152;5.436;2024-02-21T10:41:21;4.50;;;2.22;;
71969;SDS011;59838;52.152;5.436;2024-02-21T10:43:52;4.75;;;2.38;;
71969;SDS011;59838;52.152;5.436;2024-02-21T10:46:22;6.00;;;2.67;;
71969;SDS011;59838;52.152;5.436;2024-02-21T10:49:00;6.72;;;1.98;;
71969;SDS011;59838;52.152;5.436;2024-02-21T10:51:33;3.38;;;2.35;;
71969;SDS011;59838;52.152;5.436;2024-02-21T10:54:27;3.88;;;1.67;;
71969;SDS011;59838;52.152;5.436;2024-02-21T10:57:00;2.88;;;1.75;;
71969;SDS011;59838;52.152;5.436;2024-02-21T10:59:30;5.90;;;1.80;;
71969;SDS011;59838;52.152;5.436;2024-02-21T11:01:58;3.22;;;2.05;;
71969;SDS011;59838;52.152;5.436;2024-02-21T11:04:25;4.53;;;2.28;;
71969;SDS011;59838;52.152;5.436;2024-02-21T11:06:53;4.40;;;1.98;;
71969;SDS011;59838;52.152;5.436;2024-02-21T11:09:29;6.72;;;1.88;;
71969;SDS011;59838;52.152;5.436;2024-02-21T11:11:57;3.08;;;1.95;;
71969;SDS011;59838;52.152;5.436;2024-02-21T11:14:26;4.07;;;2.10;;
71969;SDS011;59838;52.152;5.436;2024-02-21T11:16:53;4.28;;;2.13;;
71969;SDS011;59838;52.152;5.436;2024-02-21T11:19:20;8.25;;;2.25;;
71969;SDS011;59838;52.152;5.436;2024-02-21T11:21:55;4.70;;;2.60;;
71969;SDS011;59838;52.152;5.436;2024-02-21T11:29:46;5.53;;;2.70;;
71969;SDS011;59838;52.152;5.436;2024-02-21T11:32:14;3.92;;;2.78;;
71969;SDS011;59838;52.152;5.436;2024-02-21T11:34:58;5.45;;;2.38;;
71969;SDS011;59838;52.152;5.436;2024-02-21T11:37:31;3.33;;;2.15;;
71969;SDS011;59838;52.152;5.436;2024-02-21T11:40:03;5.00;;;2.60;;
71969;SDS011;59838;52.152;5.436;2024-02-21T11:42:33;3.70;;;2.70;;
71969;SDS011;59838;52.152;5.436;2024-02-21T11:45:00;4.70;;;2.35;;
71969;SDS011;59838;52.152;5.436;2024-02-21T11:47:30;4.93;;;2.35;;
71969;SDS011;59838;52.152;5.436;2024-02-21T11:49:57;3.42;;;2.50;;
71969;SDS011;59838;52.152;5.436;2024-02-21T11:52:24;4.68;;;2.47;;
71969;SDS011;59838;52.152;5.436;2024-02-21T11:54:53;4.13;;;2.05;;
71969;SDS011;59838;52.152;5.436;2024-02-21T11:57:21;5.45;;;2.92;;
71969;SDS011;59838;52.152;5.436;2024-02-21T11:59:47;3.40;;;2.60;;
71969;SDS011;59838;52.152;5.436;2024-02-21T12:02:18;4.15;;;3.10;;
71969;SDS011;59838;52.152;5.436;2024-02-21T12:04:44;4.78;;;2.50;;
71969;SDS011;59838;52.152;5.436;2024-02-21T12:07:12;9.18;;;3.13;;
71969;SDS011;59838;52.152;5.436;2024-02-21T12:09:38;8.73;;;3.25;;
71969;SDS011;59838;52.152;5.436;2024-02-21T12:12:08;5.40;;;2.85;;
71969;SDS011;59838;52.152;5.436;2024-02-21T12:14:35;9.07;;;3.33;;
71969;SDS011;59838;52.152;5.436;2024-02-21T12:17:02;5.70;;;2.92;;
71969;SDS011;59838;52.152;5.436;2024-02-21T12:19:33;4.80;;;2.80;;
71969;SDS011;59838;52.152;5.436;2024-02-21T12:22:01;7.05;;;2.78;;
71969;SDS011;59838;52.152;5.436;2024-02-21T12:24:32;5.70;;;2.55;;
71969;SDS011;59838;52.152;5.436;2024-02-21T12:26:58;5.00;;;2.65;;
71969;SDS011;59838;52.152;5.436;2024-02-21T12:29:26;5.75;;;2.85;;
71969;SDS011;59838;52.152;5.436;2024-02-21T12:31:53;4.45;;;2.70;;
71969;SDS011;59838;52.152;5.436;2024-02-21T12:34:21;5.03;;;2.95;;
71969;SDS011;59838;52.152;5.436;2024-02-21T12:37:04;6.78;;;2.80;;
71969;SDS011;59838;52.152;5.436;2024-02-21T12:39:30;4.40;;;2.30;;
71969;SDS011;59838;52.152;5.436;2024-02-21T12:41:58;4.07;;;2.17;;
71969;SDS011;59838;52.152;5.436;2024-02-21T12:44:25;4.43;;;2.85;;
71969;SDS011;59838;52.152;5.436;2024-02-21T12:46:51;5.50;;;2.70;;
71969;SDS011;59838;52.152;5.436;2024-02-21T12:49:20;4.43;;;2.35;;
71969;SDS011;59838;52.152;5.436;2024-02-21T12:51:47;4.78;;;2.42;;
71969;SDS011;59838;52.152;5.436;2024-02-21T12:54:13;4.93;;;2.45;;
71969;SDS011;59838;52.152;5.436;2024-02-21T12:56:40;2.97;;;2.30;;
71969;SDS011;59838;52.152;5.436;2024-02-21T12:59:07;4.63;;;2.90;;
71969;SDS011;59838;52.152;5.436;2024-02-21T13:01:35;4.65;;;2.40;;
71969;SDS011;59838;52.152;5.436;2024-02-21T13:04:02;8.30;;;2.70;;
71969;SDS011;59838;52.152;5.436;2024-02-21T13:06:29;5.88;;;2.22;;
71969;SDS011;59838;52.152;5.436;2024-02-21T13:08:56;5.53;;;2.28;;
71969;SDS011;59838;52.152;5.436;2024-02-21T13:11:22;4.15;;;2.47;;
71969;SDS011;59838;52.152;5.436;2024-02-21T13:13:53;5.82;;;2.25;;
71969;SDS011;59838;52.152;5.436;2024-02-21T13:16:19;3.90;;;2.65;;
71969;SDS011;59838;52.152;5.436;2024-02-21T13:18:46;4.72;;;2.20;;
71969;SDS011;59838;52.152;5.436;2024-02-21T13:21:13;5.05;;;1.92;;
71969;SDS011;59838;52.152;5.436;2024-02-21T13:23:40;6.72;;;2.63;;
71969;SDS011;59838;52.152;5.436;2024-02-21T13:26:06;5.38;;;1.80;;
71969;SDS011;59838;52.152;5.436;2024-02-21T13:28:33;3.13;;;1.73;;
71969;SDS011;59838;52.152;5.436;2024-02-21T13:31:00;4.40;;;2.13;;
71969;SDS011;59838;52.152;5.436;2024-02-21T13:33:26;5.27;;;1.90;;
71969;SDS011;59838;52.152;5.436;2024-02-21T13:35:54;5.03;;;2.13;;
71969;SDS011;59838;52.152;5.436;2024-02-21T13:38:21;4.85;;;1.85;;
71969;SDS011;59838;52.152;5.436;2024-02-21T13:40:47;2.40;;;1.67;;
71969;SDS011;59838;52.152;5.436;2024-02-21T13:43:14;4.65;;;1.83;;
71969;SDS011;59838;52.152;5.436;2024-02-21T13:45:40;4.95;;;1.58;;
71969;SDS011;59838;52.152;5.436;2024-02-21T13:48:15;4.50;;;1.98;;
71969;SDS011;59838;52.152;5.436;2024-02-21T13:50:42;3.28;;;1.45;;
71969;SDS011;59838;52.152;5.436;2024-02-21T13:53:09;6.85;;;1.75;;
71969;SDS011;59838;52.152;5.436;2024-02-21T13:55:36;2.60;;;1.20;;
71969;SDS011;59838;52.152;5.436;2024-02-21T13:58:03;4.10;;;1.65;;
71969;SDS011;59838;52.152;5.436;2024-02-21T14:00:29;6.30;;;1.88;;
71969;SDS011;59838;52.152;5.436;2024-02-21T14:02:56;4.05;;;1.63;;
71969;SDS011;59838;52.152;5.436;2024-02-21T14:05:24;4.95;;;1.48;;
71969;SDS011;59838;52.152;5.436;2024-02-21T14:07:51;6.63;;;1.88;;
71969;SDS011;59838;52.152;5.436;2024-02-21T14:10:20;6.17;;;2.03;;
71969;SDS011;59838;52.152;5.436;2024-02-21T14:12:47;5.40;;;1.23;;
71969;SDS011;59838;52.152;5.436;2024-02-21T14:15:14;5.60;;;1.52;;
71969;SDS011;59838;52.152;5.436;2024-02-21T14:17:42;3.58;;;1.30;;
71969;SDS011;59838;52.152;5.436;2024-02-21T14:20:10;8.93;;;1.58;;
71969;SDS011;59838;52.152;5.436;2024-02-21T14:22:41;4.93;;;1.63;;
71969;SDS011;59838;52.152;5.436;2024-02-21T14:25:08;3.55;;;1.52;;
71969;SDS011;59838;52.152;5.436;2024-02-21T14:27:34;4.40;;;1.50;;
71969;SDS011;59838;52.152;5.436;2024-02-21T14:30:03;2.78;;;1.20;;
71969;SDS011;59838;52.152;5.436;2024-02-21T14:32:29;3.92;;;1.10;;
71969;SDS011;59838;52.152;5.436;2024-02-21T14:34:56;6.15;;;1.40;;
71969;SDS011;59838;52.152;5.436;2024-02-21T14:37:24;3.67;;;1.20;;
71969;SDS011;59838;52.152;5.436;2024-02-21T14:39:51;6.28;;;1.42;;
71969;SDS011;59838;52.152;5.436;2024-02-21T14:42:17;3.65;;;1.17;;
71969;SDS011;59838;52.152;5.436;2024-02-21T14:44:44;7.00;;;1.67;;
71969;SDS011;59838;52.152;5.436;2024-02-21T14:47:10;3.50;;;1.05;;
71969;SDS011;59838;52.152;5.436;2024-02-21T14:49:37;3.50;;;1.45;;
71969;SDS011;59838;52.152;5.436;2024-02-21T14:52:04;2.92;;;1.00;;